McLean, Virginia
Current Conditions -  °F | °C
As of 12:52 AM on Tuesday 21 Oct 2014 (Local Time) from KDCA Reporting Station
Overcast Overcast  
Wind Chill: 59°   Ceiling: 8000
Heat Index: 59°   Visibility: 10mi
Dew Point: 49°   Wind: 8mph
Humidity: 69%   Direction: 180°S
Pressure: 29.93"   Gusts: NA
Location:  38.94°N, 77.18°W
Report Text: KDCA 210452Z 18007KT 10SM FEW060 OVC080 15/09 A2993 RMK AO2 RAE16B42E52 SLP134 P0000 T01500094 402110072
Loading
Personal Weather Stations






























Interactive Weather Map
Tropical Storm Tracking
New forecast layout! Learn more

10-Day Weather Forecast

Advertisements
Track Severe Weather on mobile